CST weather

Castilla Central Airport
Pradera, Valle del Cauca Department, Colombia

Public forecast

Using degrees Celsius for public forecast. Weather courtesy of forecast.io.

METAR (pilot weather report)

Closest report is Alfonso Bonilla Aragon International Airport, 12.4 nm (23.0 km) NNW. Retrieved 2019/08/19 14:00 UTC (30 minutes ago):

SKCL 191400Z 11003KT 8000 FEW017 BKN300 25/18 A3004 NOSIG RMKHZ

TAF (pilot weather forecast)

Closest forecast is Alfonso Bonilla Aragon International Airport, 12.4 nm (23.0 km) NNW. Retrieved 2019/08/19 12:59 UTC (2 hours ago):

TAF SKCL 191030Z 1912/2012 04005KT 9999 FEW030 BECMG 1919/1921 36012KT PROB30 TEMPO 1921/2002 DZRA SCT020 BKN090 TX32/1919Z TN18/2011Z